Time;durP1;ratioP1;P1;durP2;ratioP2;P2;SDS_P1;SDS_P2;PMS_P1;PMS_P2;Temp;Humidity;BMP_temperature;BMP_pressure;BME280_temperature;BME280_humidity;BME280_pressure;Samples;Min_cycle;Max_cycle;Signal;HPM_P1;HPM_P2
2022/01/08 00:02:06;;;;;;;8.30;1.90;;;2.80;99.90;;;;;;5098913;27;20095;-78
2022/01/08 00:04:32;;;;;;;8.20;2.50;;;2.80;99.90;;;;;;5103305;27;20079;-79
2022/01/08 00:06:57;;;;;;;7.93;2.67;;;2.70;99.90;;;;;;5137417;27;20078;-79
2022/01/08 00:09:23;;;;;;;14.02;2.47;;;2.90;99.90;;;;;;5119952;27;20503;-79
2022/01/08 00:11:49;;;;;;;11.90;2.50;;;2.80;99.90;;;;;;5119776;27;20146;-79
2022/01/08 00:14:15;;;;;;;13.20;2.45;;;2.70;99.90;;;;;;5120182;27;20050;-78
2022/01/08 00:16:41;;;;;;;6.15;2.17;;;2.70;99.90;;;;;;5137027;27;20513;-78
2022/01/08 00:19:07;;;;;;;13.57;3.15;;;2.70;99.90;;;;;;5136711;27;20038;-79
2022/01/08 00:21:33;;;;;;;10.82;2.85;;;2.60;99.90;;;;;;5103205;27;20467;-79
2022/01/08 00:23:59;;;;;;;10.10;2.30;;;2.70;99.90;;;;;;5136320;27;20042;-79
2022/01/08 00:26:25;;;;;;;10.65;2.58;;;2.60;99.90;;;;;;5137012;27;20050;-79
2022/01/08 00:28:51;;;;;;;9.73;2.42;;;2.60;99.90;;;;;;5136883;27;20046;-79
2022/01/08 00:31:17;;;;;;;9.27;2.50;;;2.60;99.90;;;;;;5135875;27;20046;-79
2022/01/08 00:33:42;;;;;;;9.32;2.22;;;2.60;99.90;;;;;;5154927;27;20043;-79
2022/01/08 00:36:08;;;;;;;10.82;2.65;;;2.60;99.90;;;;;;5102332;27;20137;-79
2022/01/08 00:38:34;;;;;;;12.65;2.25;;;2.60;99.90;;;;;;5119188;27;20046;-79
2022/01/08 00:41:00;;;;;;;8.40;2.35;;;2.60;99.90;;;;;;5133232;27;20047;-79
2022/01/08 00:43:26;;;;;;;9.07;2.88;;;2.60;99.90;;;;;;5133280;27;20536;-79
2022/01/08 00:45:52;;;;;;;11.75;2.53;;;2.70;99.90;;;;;;5107925;27;20524;-79
2022/01/08 00:48:18;;;;;;;12.32;2.60;;;2.60;99.90;;;;;;5115881;28;20043;-79
2022/01/08 00:50:43;;;;;;;10.25;2.72;;;2.60;99.90;;;;;;5094949;28;20126;-79
2022/01/08 00:53:09;;;;;;;8.95;2.15;;;2.50;99.90;;;;;;5111414;28;20108;-79
2022/01/08 00:55:35;;;;;;;9.85;1.92;;;2.50;99.90;;;;;;5099228;27;20046;-78
2022/01/08 00:58:01;;;;;;;9.55;1.77;;;2.50;99.90;;;;;;5132323;27;20035;-79
2022/01/08 01:00:27;;;;;;;8.07;1.33;;;2.60;99.90;;;;;;5115121;27;20092;-81
2022/01/08 01:02:53;;;;;;;4.32;0.82;;;2.50;99.90;;;;;;5087653;28;20040;-79
2022/01/08 01:05:20;;;;;;;3.90;0.88;;;2.50;99.90;;;;;;5091841;28;20050;-78
2022/01/08 01:07:46;;;;;;;6.20;0.80;;;2.60;99.90;;;;;;5132746;27;20043;-79
2022/01/08 01:10:12;;;;;;;5.30;0.93;;;2.60;99.90;;;;;;5115621;28;20364;-79
2022/01/08 01:12:38;;;;;;;3.17;0.70;;;2.60;99.90;;;;;;5115960;28;20049;-78
2022/01/08 01:15:05;;;;;;;5.80;0.90;;;2.60;99.90;;;;;;5132336;28;20490;-79
2022/01/08 01:17:31;;;;;;;6.22;0.90;;;2.60;99.90;;;;;;5133030;28;20093;-79
2022/01/08 01:19:56;;;;;;;3.72;1.30;;;2.50;99.90;;;;;;5094806;28;20441;-79
2022/01/08 01:22:27;;;;;;;6.07;1.15;;;2.50;99.90;;;;;;5078614;28;20044;-78
2022/01/08 01:25:00;;;;;;;9.55;1.58;;;2.50;99.90;;;;;;5080867;28;20051;-82
2022/01/08 01:27:54;;;;;;;8.88;1.63;;;2.50;99.90;;;;;;5128097;28;20039;-79
2022/01/08 01:30:25;;;;;;;10.98;2.17;;;2.50;99.90;;;;;;5118557;28;20502;-81
2022/01/08 01:41:33;;;;;;;8.82;1.67;;;2.60;99.90;;;;;;5104601;28;20047;-79
2022/01/08 01:48:53;;;;;;;12.07;1.42;;;2.70;99.90;;;;;;5118338;27;20437;-79
2022/01/08 01:51:20;;;;;;;11.40;1.60;;;2.70;99.90;;;;;;5117091;27;20082;-79
2022/01/08 01:53:46;;;;;;;11.60;1.65;;;2.80;99.90;;;;;;5131793;27;20050;-79
2022/01/08 01:56:12;;;;;;;8.73;1.30;;;2.80;99.90;;;;;;5118013;27;20073;-79
2022/01/08 01:58:38;;;;;;;9.05;1.45;;;2.80;99.90;;;;;;5135690;27;20043;-79
2022/01/08 02:01:04;;;;;;;15.85;1.80;;;2.90;99.90;;;;;;5084774;27;20762;-79
2022/01/08 02:03:29;;;;;;;9.88;1.42;;;2.90;99.90;;;;;;5097956;28;20463;-79
2022/01/08 02:05:55;;;;;;;8.88;1.70;;;2.90;99.90;;;;;;5114931;28;20035;-79
2022/01/08 02:08:21;;;;;;;9.60;1.10;;;2.90;99.90;;;;;;5117157;27;20041;-79
2022/01/08 02:10:46;;;;;;;6.35;0.93;;;2.90;99.90;;;;;;5101585;27;20594;-79
2022/01/08 02:13:24;;;;;;;4.35;1.02;;;3.00;99.90;;;;;;5136029;27;20046;-78
2022/01/08 02:15:52;;;;;;;7.80;1.45;;;3.10;99.90;;;;;;5118963;27;20043;-79
2022/01/08 02:18:19;;;;;;;8.48;1.23;;;3.10;99.90;;;;;;5139112;27;20102;-79
2022/01/08 02:20:44;;;;;;;6.63;1.10;;;3.20;99.90;;;;;;5097346;28;20487;-79
2022/01/08 02:23:10;;;;;;;5.18;0.98;;;3.30;99.90;;;;;;5115064;28;20043;-79
2022/01/08 02:25:36;;;;;;;8.27;1.15;;;3.30;99.90;;;;;;5110025;27;20130;-79
2022/01/08 02:28:05;;;;;;;6.80;0.90;;;3.30;99.90;;;;;;5118007;27;20047;-79
2022/01/08 02:30:31;;;;;;;11.38;1.27;;;3.30;99.90;;;;;;5115181;27;20047;-79
2022/01/08 02:32:57;;;;;;;7.05;1.65;;;3.20;99.90;;;;;;5115089;28;20051;-79
2022/01/08 02:35:23;;;;;;;6.07;1.08;;;3.20;99.90;;;;;;5122913;27;20043;-79
2022/01/08 02:37:53;;;;;;;7.18;1.05;;;3.20;99.90;;;;;;5118215;27;20126;-79
2022/01/08 02:40:20;;;;;;;4.45;0.60;;;3.10;99.90;;;;;;5117918;27;20055;-79
2022/01/08 02:43:04;;;;;;;5.15;0.93;;;3.00;99.90;;;;;;5135642;27;20163;-79
2022/01/08 02:45:31;;;;;;;3.85;0.82;;;3.00;99.90;;;;;;5119071;27;20130;-79
2022/01/08 02:47:57;;;;;;;4.47;0.73;;;2.80;99.90;;;;;;5118362;27;20039;-79
2022/01/08 02:50:24;;;;;;;4.00;0.98;;;2.90;99.90;;;;;;5117961;27;20054;-79
2022/01/08 02:52:50;;;;;;;7.38;1.02;;;2.80;99.90;;;;;;5117694;27;20051;-79
2022/01/08 02:55:19;;;;;;;10.55;1.20;;;2.80;99.90;;;;;;5112475;28;20070;-79
2022/01/08 02:57:45;;;;;;;7.25;1.10;;;2.80;99.90;;;;;;5120788;27;20047;-80
2022/01/08 03:00:14;;;;;;;5.82;1.10;;;2.70;99.90;;;;;;5115772;27;20514;-79
2022/01/08 03:02:45;;;;;;;7.90;1.00;;;2.70;99.90;;;;;;5134409;27;20078;-78
2022/01/08 03:05:12;;;;;;;5.65;1.20;;;2.70;99.90;;;;;;5117211;27;20522;-79
2022/01/08 03:07:38;;;;;;;6.43;1.08;;;2.80;99.90;;;;;;5114242;28;20127;-79
2022/01/08 03:10:06;;;;;;;7.68;0.98;;;2.70;99.90;;;;;;5090101;28;20043;-79
2022/01/08 03:12:32;;;;;;;14.38;1.52;;;2.70;99.90;;;;;;5132026;27;20216;-79
2022/01/08 03:14:57;;;;;;;7.40;1.45;;;2.70;99.90;;;;;;5134718;27;20540;-79
2022/01/08 03:17:23;;;;;;;6.38;1.38;;;2.70;99.90;;;;;;5134469;27;20514;-79
2022/01/08 03:19:52;;;;;;;10.27;1.48;;;2.80;99.90;;;;;;5117796;27;20118;-79
2022/01/08 03:22:18;;;;;;;10.40;1.40;;;2.90;99.90;;;;;;5100563;27;20050;-79
2022/01/08 03:24:43;;;;;;;7.13;1.98;;;2.90;99.90;;;;;;5114182;28;20047;-79
2022/01/08 03:27:09;;;;;;;9.25;1.63;;;3.10;99.90;;;;;;5128254;27;20043;-80
2022/01/08 03:29:35;;;;;;;12.70;2.20;;;3.10;99.90;;;;;;5117355;27;20039;-79
2022/01/08 03:32:01;;;;;;;10.80;1.83;;;3.20;99.90;;;;;;5114113;28;20086;-79
2022/01/08 03:34:27;;;;;;;15.40;1.77;;;3.10;99.90;;;;;;5096753;28;20049;-82
2022/01/08 03:36:52;;;;;;;11.55;1.65;;;3.10;99.90;;;;;;5096896;28;20082;-79
2022/01/08 03:39:20;;;;;;;10.60;1.45;;;3.00;99.90;;;;;;5096279;28;20090;-79
2022/01/08 03:41:47;;;;;;;11.75;1.52;;;2.90;99.90;;;;;;5097073;28;20124;-79
2022/01/08 03:44:13;;;;;;;6.65;1.30;;;2.80;99.90;;;;;;5062856;28;20102;-79
2022/01/08 03:46:39;;;;;;;8.82;1.45;;;2.80;99.90;;;;;;5105948;27;20101;-79
2022/01/08 03:51:32;;;;;;;11.40;1.50;;;2.70;99.90;;;;;;5133962;27;20159;-79
2022/01/08 03:53:58;;;;;;;11.95;1.73;;;2.60;99.90;;;;;;5134082;27;20495;-79
2022/01/08 03:56:25;;;;;;;9.63;1.55;;;2.60;99.90;;;;;;5109579;27;20078;-79
2022/01/08 03:58:50;;;;;;;12.68;2.00;;;2.50;99.90;;;;;;5104766;28;20052;-79
2022/01/08 04:01:16;;;;;;;12.05;2.08;;;2.40;99.90;;;;;;5095698;28;20048;-79
2022/01/08 04:03:42;;;;;;;8.90;1.75;;;2.40;99.90;;;;;;5079176;28;20050;-80
2022/01/08 04:06:08;;;;;;;16.17;1.95;;;2.40;99.90;;;;;;5095256;28;20071;-79
2022/01/08 04:08:34;;;;;;;10.98;1.70;;;2.30;99.90;;;;;;5078677;28;20534;-79
2022/01/08 04:11:01;;;;;;;11.55;1.77;;;2.30;99.90;;;;;;5079226;28;20081;-80
2022/01/08 04:13:30;;;;;;;13.90;1.83;;;2.30;99.90;;;;;;5099383;27;20040;-79
2022/01/08 04:16:00;;;;;;;8.95;1.83;;;2.30;99.90;;;;;;5116495;27;20055;-80
2022/01/08 04:18:26;;;;;;;13.65;1.73;;;2.30;99.90;;;;;;5133732;27;20047;-78
2022/01/08 04:23:37;;;;;;;14.00;1.80;;;2.40;99.90;;;;;;5119027;27;20480;-79
2022/01/08 04:26:03;;;;;;;15.48;2.50;;;2.40;99.90;;;;;;5133554;27;20039;-79
2022/01/08 04:28:29;;;;;;;12.00;1.70;;;2.50;99.90;;;;;;5133188;27;20376;-79
2022/01/08 04:30:55;;;;;;;11.25;1.73;;;2.50;99.90;;;;;;5116391;27;20117;-79
2022/01/08 04:33:20;;;;;;;10.15;1.90;;;2.50;99.90;;;;;;5133394;27;20050;-79
2022/01/08 04:35:46;;;;;;;11.02;1.52;;;2.50;99.90;;;;;;5112237;28;20043;-79
2022/01/08 04:38:12;;;;;;;16.15;1.80;;;2.50;99.90;;;;;;5121817;27;20525;-79
2022/01/08 04:40:39;;;;;;;9.48;1.77;;;2.60;99.90;;;;;;5115810;27;20055;-79
2022/01/08 04:43:04;;;;;;;14.75;2.05;;;2.60;99.90;;;;;;5133259;27;20398;-79
2022/01/08 04:45:30;;;;;;;11.30;1.60;;;2.70;99.90;;;;;;5133204;27;20046;-79
2022/01/08 04:47:58;;;;;;;7.57;1.50;;;2.70;99.90;;;;;;5132958;27;20051;-79
2022/01/08 04:50:24;;;;;;;13.48;2.30;;;2.70;99.90;;;;;;5082260;27;20134;-79
2022/01/08 04:52:50;;;;;;;14.45;1.80;;;2.70;99.90;;;;;;5082638;28;20047;-79
2022/01/08 04:55:16;;;;;;;14.27;1.63;;;2.70;99.90;;;;;;5133101;27;20042;-79
2022/01/08 04:57:42;;;;;;;7.85;1.77;;;2.70;99.90;;;;;;5098601;27;20035;-78
2022/01/08 05:00:08;;;;;;;9.25;1.58;;;2.70;99.90;;;;;;5132911;27;20039;-79
2022/01/08 05:02:34;;;;;;;12.43;1.90;;;2.60;99.90;;;;;;5115705;27;20077;-79
2022/01/08 05:05:00;;;;;;;13.25;1.73;;;2.60;99.90;;;;;;5133013;27;20127;-79
2022/01/08 05:07:25;;;;;;;13.02;1.95;;;2.60;99.90;;;;;;5115412;27;20046;-79
2022/01/08 05:09:51;;;;;;;9.85;1.58;;;2.60;99.90;;;;;;5115706;28;20047;-79
2022/01/08 05:12:16;;;;;;;12.02;1.67;;;2.60;99.90;;;;;;5133115;28;20317;-78
2022/01/08 05:14:44;;;;;;;15.52;3.45;;;2.50;99.90;;;;;;5132441;28;20068;-79
2022/01/08 05:17:10;;;;;;;10.35;2.05;;;2.50;99.90;;;;;;5132985;27;20463;-79
2022/01/08 05:19:50;;;;;;;10.50;1.88;;;2.50;99.90;;;;;;5136449;27;20043;-79
2022/01/08 05:22:29;;;;;;;11.52;1.75;;;2.40;99.90;;;;;;5120275;27;20054;-79
2022/01/08 05:24:55;;;;;;;8.30;1.67;;;2.40;99.90;;;;;;5119613;27;20050;-79
2022/01/08 05:27:21;;;;;;;8.88;1.70;;;2.40;99.90;;;;;;5102651;27;20138;-84
2022/01/08 05:29:50;;;;;;;11.50;1.92;;;2.40;99.90;;;;;;5123033;27;20125;-81
2022/01/08 05:32:17;;;;;;;11.82;1.88;;;2.40;99.90;;;;;;5122947;27;20058;-79
2022/01/08 05:34:48;;;;;;;13.07;1.63;;;2.30;99.90;;;;;;5111437;28;20438;-79
2022/01/08 05:37:15;;;;;;;8.80;1.45;;;2.30;99.90;;;;;;5099038;28;20430;-77
2022/01/08 05:39:41;;;;;;;10.00;1.60;;;2.20;99.90;;;;;;5115580;28;20066;-77
2022/01/08 05:42:07;;;;;;;11.38;1.85;;;2.30;99.90;;;;;;5116127;28;20047;-77
2022/01/08 05:44:32;;;;;;;12.90;1.70;;;2.20;99.90;;;;;;5105249;28;20116;-77
2022/01/08 05:46:59;;;;;;;17.38;2.20;;;2.20;99.90;;;;;;5131635;27;20043;-77
2022/01/08 05:49:24;;;;;;;9.88;1.70;;;2.10;99.90;;;;;;5119386;27;20047;-79
2022/01/08 05:51:50;;;;;;;16.70;1.80;;;2.10;99.90;;;;;;5119606;27;20042;-77
2022/01/08 05:54:16;;;;;;;15.02;1.90;;;2.10;99.90;;;;;;5119406;27;20042;-78
2022/01/08 05:56:41;;;;;;;8.70;1.77;;;2.00;99.90;;;;;;5118892;27;20550;-77
2022/01/08 05:59:07;;;;;;;10.60;1.80;;;2.10;99.90;;;;;;5102183;27;20043;-80
2022/01/08 06:01:34;;;;;;;13.13;1.90;;;2.00;99.90;;;;;;5118062;27;20391;-77
2022/01/08 06:04:01;;;;;;;10.98;2.22;;;1.90;99.90;;;;;;5116172;27;20051;-79
2022/01/08 06:06:27;;;;;;;13.52;2.00;;;1.90;99.90;;;;;;5099560;27;20039;-78
2022/01/08 06:08:52;;;;;;;11.63;1.92;;;1.80;99.90;;;;;;5135543;27;20047;-77
2022/01/08 06:11:18;;;;;;;14.00;3.03;;;1.80;99.90;;;;;;5127764;27;20436;-77
2022/01/08 06:13:44;;;;;;;11.45;2.10;;;1.80;99.90;;;;;;5098358;28;20055;-76
2022/01/08 06:16:10;;;;;;;11.68;1.83;;;1.70;99.90;;;;;;5116967;27;20050;-78
2022/01/08 06:18:36;;;;;;;16.27;2.58;;;1.70;99.90;;;;;;5118248;27;20035;-77
2022/01/08 06:21:03;;;;;;;10.38;2.25;;;1.70;99.90;;;;;;5099233;27;20051;-79
2022/01/08 06:23:29;;;;;;;13.38;2.33;;;1.70;99.90;;;;;;5135862;27;20074;-79
2022/01/08 06:25:55;;;;;;;9.15;1.90;;;1.60;99.90;;;;;;5118617;27;20085;-79
2022/01/08 06:28:21;;;;;;;13.25;2.60;;;1.60;99.90;;;;;;5135670;27;20047;-79
2022/01/08 06:30:47;;;;;;;17.20;2.80;;;1.60;99.90;;;;;;5101683;27;20035;-79
2022/01/08 06:33:14;;;;;;;7.72;2.08;;;1.70;99.90;;;;;;5118293;27;20061;-79
2022/01/08 06:35:39;;;;;;;10.85;2.10;;;1.60;99.90;;;;;;5101157;27;20112;-78
2022/01/08 06:38:05;;;;;;;12.85;2.10;;;1.60;99.90;;;;;;5118783;27;20051;-78
2022/01/08 06:40:31;;;;;;;12.88;2.53;;;1.70;99.90;;;;;;5134896;27;20062;-79
2022/01/08 06:42:57;;;;;;;17.58;2.13;;;1.70;99.90;;;;;;5135461;27;20094;-79
2022/01/08 06:45:22;;;;;;;13.48;2.65;;;1.70;99.90;;;;;;5118029;27;20046;-79
2022/01/08 06:47:48;;;;;;;9.50;1.80;;;1.70;99.90;;;;;;5114062;28;20370;-80
2022/01/08 06:50:14;;;;;;;10.75;2.08;;;1.70;99.90;;;;;;5112739;28;20053;-79
2022/01/08 06:52:39;;;;;;;10.93;2.20;;;1.70;99.90;;;;;;5122343;27;20111;-78
2022/01/08 06:55:06;;;;;;;10.95;2.53;;;1.70;99.90;;;;;;5135260;27;20050;-79
2022/01/08 06:57:32;;;;;;;12.85;2.30;;;1.70;99.90;;;;;;5117423;27;20066;-82
2022/01/08 07:00:00;;;;;;;10.55;1.90;;;1.70;99.90;;;;;;5133850;27;20070;-79
2022/01/08 07:02:26;;;;;;;10.68;1.80;;;1.80;99.90;;;;;;5134734;27;20051;-78
2022/01/08 07:04:51;;;;;;;11.05;1.90;;;1.80;99.90;;;;;;5097996;27;20089;-79
2022/01/08 07:07:17;;;;;;;11.95;1.80;;;1.80;99.90;;;;;;5109101;27;20093;-80
2022/01/08 07:09:43;;;;;;;15.00;2.13;;;1.90;99.90;;;;;;5133910;27;20051;-81
2022/01/08 07:12:09;;;;;;;16.65;2.00;;;1.90;99.90;;;;;;5096757;28;20750;-78
2022/01/08 07:14:34;;;;;;;12.18;1.80;;;1.90;99.90;;;;;;5100978;27;20061;-86
2022/01/08 07:17:00;;;;;;;10.60;2.00;;;1.90;99.90;;;;;;5083709;27;20043;-79
2022/01/08 07:19:26;;;;;;;13.30;1.90;;;1.90;99.90;;;;;;5117462;27;20035;-78
2022/01/08 07:21:51;;;;;;;12.10;1.75;;;2.00;99.90;;;;;;5099955;27;20100;-80
2022/01/08 07:24:17;;;;;;;11.07;1.90;;;1.90;99.90;;;;;;5134240;27;20046;-80
2022/01/08 07:26:43;;;;;;;19.33;2.58;;;2.00;99.90;;;;;;5100104;27;20047;-80
2022/01/08 07:29:09;;;;;;;11.60;1.60;;;1.90;99.90;;;;;;5133205;27;20043;-80
2022/01/08 07:31:35;;;;;;;16.77;1.85;;;1.90;99.90;;;;;;5117003;27;20096;-81
2022/01/08 07:34:01;;;;;;;10.80;1.90;;;1.80;99.90;;;;;;5099543;27;20043;-80
2022/01/08 07:36:26;;;;;;;8.88;2.10;;;1.80;99.90;;;;;;5100043;27;20043;-80
2022/01/08 07:38:52;;;;;;;12.30;2.20;;;1.80;99.90;;;;;;5116862;27;20096;-78
2022/01/08 07:41:18;;;;;;;9.00;2.13;;;1.80;99.90;;;;;;5116353;27;20095;-79
2022/01/08 07:43:44;;;;;;;8.05;1.38;;;1.80;99.90;;;;;;5134135;27;20065;-80
2022/01/08 07:46:10;;;;;;;9.50;1.85;;;1.70;99.90;;;;;;5117404;27;20043;-80
2022/01/08 07:48:35;;;;;;;9.38;1.85;;;1.80;99.90;;;;;;5099885;27;20160;-80
2022/01/08 07:51:01;;;;;;;11.23;2.00;;;1.60;99.90;;;;;;5099953;27;20054;-80
2022/01/08 07:53:27;;;;;;;12.88;2.67;;;1.60;99.90;;;;;;5096813;28;20039;-79
2022/01/08 07:55:53;;;;;;;8.15;1.98;;;1.60;99.90;;;;;;5079398;28;20494;-80
2022/01/08 07:58:20;;;;;;;16.67;2.33;;;1.60;99.90;;;;;;5096503;28;20484;-80
2022/01/08 08:00:51;;;;;;;12.93;1.95;;;1.40;99.90;;;;;;5112862;28;20050;-80
2022/01/08 08:03:18;;;;;;;10.68;2.22;;;1.40;99.90;;;;;;5066371;27;20047;-80
2022/01/08 08:05:45;;;;;;;13.77;2.40;;;1.40;99.90;;;;;;5115742;27;20043;-80
2022/01/08 08:08:18;;;;;;;11.45;2.90;;;1.50;99.90;;;;;;5100052;27;20464;-80
2022/01/08 08:10:47;;;;;;;12.40;2.13;;;1.50;99.90;;;;;;5129485;27;20047;-80
2022/01/08 08:13:13;;;;;;;13.50;2.42;;;1.50;99.90;;;;;;5100324;27;20078;-80
2022/01/08 08:15:39;;;;;;;20.67;4.20;;;1.50;99.90;;;;;;5116121;27;20365;-80
2022/01/08 08:18:05;;;;;;;13.23;2.35;;;1.60;99.90;;;;;;5116344;27;20147;-81
2022/01/08 08:20:30;;;;;;;15.93;3.22;;;1.60;99.90;;;;;;5085757;28;20400;-80
2022/01/08 08:22:56;;;;;;;14.88;2.85;;;1.60;99.90;;;;;;5097184;28;20057;-80
2022/01/08 08:25:22;;;;;;;15.65;3.05;;;1.70;99.90;;;;;;5106202;28;20036;-79
2022/01/08 08:27:47;;;;;;;8.98;2.97;;;1.80;99.90;;;;;;5119414;27;20101;-81
2022/01/08 08:30:13;;;;;;;12.13;3.00;;;1.80;99.90;;;;;;5098004;27;20575;-80
2022/01/08 08:32:39;;;;;;;15.25;3.25;;;1.80;99.90;;;;;;5132098;27;20109;-81
2022/01/08 08:35:05;;;;;;;13.48;3.08;;;1.90;99.90;;;;;;5121630;27;20047;-80
2022/01/08 08:37:35;;;;;;;16.40;3.80;;;1.90;99.90;;;;;;5095793;28;20495;-80
2022/01/08 08:40:01;;;;;;;10.35;3.45;;;1.90;99.90;;;;;;5105838;27;20160;-80
2022/01/08 08:42:27;;;;;;;12.85;3.53;;;1.90;99.90;;;;;;5111814;28;20044;-79
2022/01/08 08:44:53;;;;;;;16.52;3.97;;;2.00;99.90;;;;;;5098129;27;20062;-80
2022/01/08 08:47:18;;;;;;;13.18;3.63;;;2.00;99.90;;;;;;5098791;27;20475;-80
2022/01/08 08:49:44;;;;;;;11.55;3.83;;;2.10;99.90;;;;;;5133130;27;20391;-81
2022/01/08 08:52:10;;;;;;;17.60;3.95;;;2.10;99.90;;;;;;5085848;28;20039;-80
2022/01/08 08:54:37;;;;;;;13.60;3.67;;;2.10;99.90;;;;;;5115733;27;20043;-80
2022/01/08 08:57:03;;;;;;;11.80;3.83;;;2.10;99.90;;;;;;5115447;27;20108;-91
2022/01/08 08:59:29;;;;;;;8.63;3.60;;;2.10;99.90;;;;;;5098637;27;20035;-81
2022/01/08 09:01:55;;;;;;;12.52;3.33;;;2.20;99.90;;;;;;5081133;27;20047;-80
2022/01/08 09:04:22;;;;;;;14.52;3.60;;;2.20;99.90;;;;;;5115736;27;20093;-81
2022/01/08 09:06:47;;;;;;;16.80;3.90;;;2.20;99.90;;;;;;5112390;28;20488;-80
2022/01/08 09:09:13;;;;;;;16.83;4.35;;;2.20;99.90;;;;;;5078474;28;20054;-79
2022/01/08 09:11:39;;;;;;;11.07;3.55;;;2.10;99.90;;;;;;5117612;28;20039;-80
2022/01/08 09:14:05;;;;;;;12.40;3.97;;;2.30;99.90;;;;;;5107556;28;20398;-81
2022/01/08 09:16:30;;;;;;;14.00;3.55;;;2.30;99.90;;;;;;5113115;28;20070;-80
2022/01/08 09:18:57;;;;;;;14.38;3.50;;;2.40;99.90;;;;;;5113394;28;20592;-79
2022/01/08 09:21:23;;;;;;;9.48;2.85;;;2.40;99.90;;;;;;5131877;28;20075;-79
2022/01/08 09:23:49;;;;;;;12.82;3.42;;;2.50;99.90;;;;;;5114823;28;20470;-80
2022/01/08 09:26:14;;;;;;;15.55;3.58;;;2.60;99.90;;;;;;5104970;28;20121;-79
2022/01/08 09:28:40;;;;;;;17.65;3.88;;;2.60;99.90;;;;;;5098839;28;20233;-79
2022/01/08 09:31:06;;;;;;;12.50;3.25;;;2.70;99.90;;;;;;5115240;28;20047;-78
2022/01/08 09:33:32;;;;;;;9.75;3.17;;;2.70;99.90;;;;;;5132489;28;20122;-80
2022/01/08 09:35:58;;;;;;;13.10;3.40;;;2.70;99.90;;;;;;5093086;28;20050;-81
2022/01/08 09:38:24;;;;;;;14.07;3.00;;;2.90;99.90;;;;;;5123211;28;20050;-79
2022/01/08 09:40:51;;;;;;;12.40;3.22;;;3.00;99.90;;;;;;5113678;28;20059;-85
2022/01/08 09:43:17;;;;;;;13.07;3.38;;;3.00;99.90;;;;;;5114189;28;20460;-81
2022/01/08 09:45:44;;;;;;;17.50;3.63;;;3.10;99.90;;;;;;5133078;28;20133;-79
2022/01/08 09:48:09;;;;;;;11.57;2.85;;;3.20;99.90;;;;;;5114703;28;20043;-78
2022/01/08 09:50:35;;;;;;;12.63;3.35;;;3.30;99.90;;;;;;5115519;28;20054;-83
2022/01/08 09:53:01;;;;;;;13.15;3.10;;;3.30;99.90;;;;;;5132188;28;20051;-80
2022/01/08 09:55:27;;;;;;;11.00;3.00;;;3.40;99.90;;;;;;5098974;28;20047;-81
2022/01/08 09:57:55;;;;;;;15.32;3.22;;;3.40;99.90;;;;;;5097887;28;20152;-81
2022/01/08 10:00:21;;;;;;;15.10;2.75;;;3.40;99.90;;;;;;5114245;28;20058;-79
2022/01/08 10:02:49;;;;;;;14.40;2.88;;;3.50;99.90;;;;;;5114607;28;20449;-81
2022/01/08 10:05:16;;;;;;;11.60;2.92;;;3.50;99.90;;;;;;5129897;27;20136;-81
2022/01/08 10:07:59;;;;;;;10.85;2.60;;;3.50;99.90;;;;;;5135684;27;20042;-79
2022/01/08 10:10:27;;;;;;;13.50;3.22;;;3.50;99.90;;;;;;5135186;27;20047;-81
2022/01/08 10:12:59;;;;;;;10.68;2.95;;;3.60;99.90;;;;;;5118551;27;20054;-85
2022/01/08 10:18:26;;;;;;;11.60;2.55;;;3.70;99.90;;;;;;5135282;27;20308;-80
2022/01/08 10:20:55;;;;;;;13.77;2.70;;;3.70;99.90;;;;;;5135221;27;20043;-81
2022/01/08 10:23:30;;;;;;;11.70;3.00;;;3.70;99.90;;;;;;5116703;27;20051;-82
2022/01/08 10:26:10;;;;;;;10.13;2.28;;;3.80;99.90;;;;;;5119901;27;20062;-83
2022/01/08 10:28:51;;;;;;;20.13;3.60;;;3.70;99.90;;;;;;5117573;27;20050;-81
2022/01/08 10:31:24;;;;;;;14.35;3.50;;;3.80;99.90;;;;;;5133891;27;20487;-83
2022/01/08 10:34:10;;;;;;;10.05;3.05;;;3.80;99.90;;;;;;5118135;27;20107;-81
2022/01/08 10:37:03;;;;;;;14.73;3.00;;;3.90;99.90;;;;;;5117731;27;20096;-83
2022/01/08 10:39:38;;;;;;;15.00;2.80;;;3.90;99.90;;;;;;5123841;27;20055;-82
2022/01/08 10:42:16;;;;;;;10.60;3.67;;;3.90;99.90;;;;;;5134082;27;20126;-84
2022/01/08 10:44:46;;;;;;;19.02;3.83;;;3.90;99.90;;;;;;5127030;27;20042;-82
2022/01/08 10:47:19;;;;;;;13.88;4.05;;;3.90;99.90;;;;;;5113485;28;20047;-82
2022/01/08 10:49:47;;;;;;;15.35;3.33;;;3.90;99.90;;;;;;5097156;28;20143;-82
2022/01/08 10:52:20;;;;;;;16.63;3.72;;;3.90;99.90;;;;;;5125066;27;20039;-82
2022/01/08 10:54:54;;;;;;;15.68;3.50;;;4.00;99.90;;;;;;5130194;27;20148;-85
2022/01/08 10:57:20;;;;;;;11.45;3.40;;;4.10;99.90;;;;;;5117659;27;20498;-81
2022/01/08 10:59:54;;;;;;;15.48;3.40;;;4.00;99.90;;;;;;5100374;27;20043;-80
2022/01/08 11:02:20;;;;;;;15.45;3.95;;;4.10;99.90;;;;;;5133784;27;20051;-80
2022/01/08 11:04:52;;;;;;;14.18;4.07;;;4.10;99.90;;;;;;5135131;27;20047;-81
2022/01/08 11:07:23;;;;;;;12.45;3.65;;;4.10;99.90;;;;;;5117379;27;20138;-79
2022/01/08 11:09:51;;;;;;;17.23;3.45;;;4.10;99.90;;;;;;5100994;27;20532;-81
2022/01/08 11:12:30;;;;;;;15.32;4.55;;;4.20;99.90;;;;;;5134001;27;20428;-81
2022/01/08 11:15:02;;;;;;;14.50;3.90;;;4.30;99.90;;;;;;5134253;27;20080;-80
2022/01/08 11:17:28;;;;;;;17.88;3.72;;;4.30;99.90;;;;;;5122167;27;20054;-82
2022/01/08 11:20:15;;;;;;;10.30;3.13;;;4.30;99.90;;;;;;5098060;28;20043;-80
2022/01/08 11:22:43;;;;;;;15.43;3.60;;;4.30;99.90;;;;;;5131470;27;20074;-78
2022/01/08 11:25:21;;;;;;;15.02;4.43;;;4.30;99.90;;;;;;5114693;27;20047;-79
2022/01/08 11:28:01;;;;;;;16.33;4.25;;;4.30;99.90;;;;;;5117362;27;20102;-79
2022/01/08 11:30:29;;;;;;;16.08;4.50;;;4.30;99.90;;;;;;5134113;27;20039;-79
2022/01/08 11:33:00;;;;;;;18.75;4.47;;;4.30;99.90;;;;;;5117454;27;20047;-80
2022/01/08 11:35:29;;;;;;;14.55;4.05;;;4.20;99.90;;;;;;5134564;27;20043;-79
2022/01/08 11:37:56;;;;;;;13.55;4.25;;;4.20;99.90;;;;;;5134275;27;20050;-81
2022/01/08 11:40:27;;;;;;;9.63;4.03;;;4.20;99.90;;;;;;5116241;27;20117;-80
2022/01/08 11:42:54;;;;;;;12.68;3.90;;;4.30;99.90;;;;;;5134331;27;20073;-79
2022/01/08 11:45:25;;;;;;;15.85;3.90;;;4.30;99.90;;;;;;5116596;27;20055;-85
2022/01/08 11:47:54;;;;;;;10.45;3.70;;;4.40;99.90;;;;;;5116873;27;20132;-82
2022/01/08 11:50:22;;;;;;;10.02;3.25;;;4.40;99.90;;;;;;5115795;27;20096;-84
2022/01/08 11:53:14;;;;;;;11.43;3.58;;;4.40;99.90;;;;;;5129594;27;20042;-80
2022/01/08 11:55:42;;;;;;;15.45;3.25;;;4.50;99.90;;;;;;5103008;27;20062;-84
2022/01/08 11:58:37;;;;;;;15.02;3.20;;;4.50;99.90;;;;;;5109437;27;20048;-80
2022/01/08 12:01:12;;;;;;;10.38;3.70;;;4.60;99.90;;;;;;5108200;27;20065;-80
2022/01/08 12:03:50;;;;;;;11.43;3.55;;;4.60;99.90;;;;;;5124952;27;20075;-79
2022/01/08 12:06:18;;;;;;;10.35;4.13;;;4.60;99.90;;;;;;5086242;27;20164;-81
2022/01/08 12:09:27;;;;;;;18.15;4.43;;;4.60;99.90;;;;;;5123207;27;20043;-82
2022/01/08 12:12:04;;;;;;;12.00;4.35;;;4.60;99.90;;;;;;5102536;28;20054;-80
2022/01/08 12:14:34;;;;;;;10.95;5.85;;;4.60;99.90;;;;;;5112549;28;20476;-81
2022/01/08 12:17:17;;;;;;;17.35;5.35;;;4.60;99.90;;;;;;5096075;28;20047;-84
2022/01/08 12:20:00;;;;;;;14.18;5.70;;;4.60;99.90;;;;;;5095783;28;20059;-82
2022/01/08 12:22:26;;;;;;;14.57;6.32;;;4.60;99.90;;;;;;5078900;28;20086;-81
2022/01/08 12:24:53;;;;;;;13.32;7.05;;;4.60;99.90;;;;;;5110366;27;20079;-81
2022/01/08 12:27:33;;;;;;;16.20;7.80;;;4.60;99.90;;;;;;5132843;27;20073;-82
2022/01/08 12:30:21;;;;;;;13.68;7.78;;;4.50;99.90;;;;;;5115315;27;20043;-82
2022/01/08 12:32:54;;;;;;;17.00;8.60;;;4.50;99.90;;;;;;5116702;27;20568;-82
2022/01/08 12:35:37;;;;;;;15.77;8.43;;;4.40;99.90;;;;;;5118430;27;20458;-82
2022/01/08 12:38:06;;;;;;;14.25;7.85;;;4.40;99.90;;;;;;5121197;27;20129;-81
2022/01/08 12:40:36;;;;;;;18.42;8.88;;;4.40;99.90;;;;;;5132141;27;20055;-81
2022/01/08 12:43:20;;;;;;;15.55;9.25;;;4.30;99.90;;;;;;5115433;27;20070;-80
2022/01/08 12:45:48;;;;;;;16.10;8.25;;;4.30;99.90;;;;;;5115703;27;20103;-81
2022/01/08 12:48:15;;;;;;;11.70;7.10;;;4.20;99.90;;;;;;5132659;27;20050;-79
2022/01/08 12:50:43;;;;;;;11.60;6.65;;;4.20;99.90;;;;;;5115573;27;20047;-78
2022/01/08 12:53:38;;;;;;;13.85;6.43;;;4.20;99.90;;;;;;5114787;27;20463;-84
2022/01/08 12:56:08;;;;;;;13.80;5.47;;;4.20;99.90;;;;;;5072925;27;20051;-81
2022/01/08 12:58:37;;;;;;;10.27;4.88;;;4.20;99.90;;;;;;5114835;27;20104;-78
2022/01/08 13:01:08;;;;;;;10.52;4.43;;;4.10;99.90;;;;;;5115149;28;20061;-79
2022/01/08 13:03:39;;;;;;;5.95;3.25;;;4.10;99.90;;;;;;5114316;28;20046;-81
2022/01/08 13:06:14;;;;;;;7.90;3.28;;;4.10;99.90;;;;;;5105548;27;20046;-82
2022/01/08 13:08:41;;;;;;;7.45;3.50;;;4.10;99.90;;;;;;5115729;28;20043;-80
2022/01/08 13:11:10;;;;;;;7.03;2.60;;;4.10;99.90;;;;;;5133104;27;20043;-80
2022/01/08 13:13:57;;;;;;;8.18;2.70;;;4.00;99.90;;;;;;5115485;28;20104;-80
2022/01/08 13:16:26;;;;;;;6.28;2.42;;;4.00;99.90;;;;;;5131911;28;20054;-80
2022/01/08 13:18:54;;;;;;;4.38;2.45;;;4.00;99.90;;;;;;5127571;28;20035;-80